createdAt,value
2022-12-08T00:01:49.776Z,96312.69
2022-12-08T00:07:29.450Z,96311.34
2022-12-08T00:12:50.082Z,96311.34
2022-12-08T00:18:11.032Z,96311.13
2022-12-08T00:23:31.692Z,96311.94
2022-12-08T00:28:52.637Z,96321.63
2022-12-08T00:34:13.905Z,96309.38
2022-12-08T00:39:35.009Z,96304.13
2022-12-08T00:44:55.700Z,96301.25
2022-12-08T00:50:16.422Z,96298.97
2022-12-08T00:55:37.184Z,96299.78
2022-12-08T01:00:58.117Z,96298.06
2022-12-08T01:06:19.196Z,96308.53
2022-12-08T01:11:39.763Z,96315.75
2022-12-08T01:17:00.741Z,96318.22
2022-12-08T01:22:21.413Z,96317.50
2022-12-08T01:27:42.303Z,96312.16
2022-12-08T01:33:03.071Z,96310.19
2022-12-08T01:38:23.894Z,96321.22
2022-12-08T01:43:50.785Z,96316.28
2022-12-08T01:49:13.611Z,96308.22
2022-12-08T01:54:36.647Z,96302.38
2022-12-08T02:00:08.716Z,96297.53
2022-12-08T02:05:31.543Z,96287.97
2022-12-08T02:10:53.113Z,96289.59
2022-12-08T02:16:26.109Z,96288.06
2022-12-08T02:21:54.379Z,96279.53
2022-12-08T02:27:18.182Z,96269.00
2022-12-08T02:32:57.835Z,96282.59
2022-12-08T02:38:37.198Z,96284.78
2022-12-08T02:44:04.200Z,96269.63
2022-12-08T02:49:29.351Z,96267.38
2022-12-08T02:54:51.729Z,96262.22
2022-12-08T03:00:17.265Z,96254.50
2022-12-08T03:05:46.366Z,96257.88
2022-12-08T03:11:22.190Z,96254.38
2022-12-08T03:16:44.278Z,96251.19
2022-12-08T03:22:06.275Z,96234.00
2022-12-08T03:27:29.531Z,96239.63
2022-12-08T03:32:56.198Z,96229.44
2022-12-08T03:38:17.124Z,96236.88
2022-12-08T03:43:38.252Z,96241.19
2022-12-08T03:48:58.686Z,96228.94
2022-12-08T03:54:19.719Z,96225.03
2022-12-08T03:59:40.560Z,96229.47
2022-12-08T04:05:01.555Z,96218.75
2022-12-08T04:10:22.331Z,96221.75
2022-12-08T04:15:46.698Z,96214.22
2022-12-08T04:21:07.516Z,96218.34
2022-12-08T04:26:28.493Z,96214.72
2022-12-08T04:31:49.143Z,96213.09
2022-12-08T04:37:10.017Z,96207.53
2022-12-08T04:42:30.998Z,96208.03
2022-12-08T04:47:51.879Z,96206.88
2022-12-08T04:53:13.503Z,96198.03
2022-12-08T04:58:34.169Z,96195.91
2022-12-08T05:03:54.818Z,96203.00
2022-12-08T05:09:15.692Z,96193.31
2022-12-08T05:14:36.495Z,96197.75
2022-12-08T05:19:57.269Z,96192.81
2022-12-08T05:25:18.007Z,96189.00
2022-12-08T05:30:38.909Z,96189.19
2022-12-08T05:35:59.646Z,96195.19
2022-12-08T05:41:20.936Z,96184.16
2022-12-08T05:46:41.451Z,96185.00
2022-12-08T05:52:02.257Z,96185.09
2022-12-08T05:57:23.107Z,96188.50
2022-12-08T06:02:44.096Z,96185.19
2022-12-08T06:08:04.837Z,96182.72
2022-12-08T06:13:25.632Z,96185.00
2022-12-08T06:18:46.517Z,96192.63
2022-12-08T06:24:07.173Z,96191.28
2022-12-08T06:29:27.626Z,96197.56
2022-12-08T06:34:48.389Z,96192.00
2022-12-08T06:40:09.647Z,96192.81
2022-12-08T06:45:30.300Z,96197.44
2022-12-08T06:50:50.935Z,96197.53
2022-12-08T06:56:12.177Z,96205.53
2022-12-08T07:01:33.069Z,96207.47
2022-12-08T07:06:53.723Z,96201.50
2022-12-08T07:12:14.260Z,96206.00
2022-12-08T07:17:34.968Z,96203.88
2022-12-08T07:22:56.014Z,96209.28
2022-12-08T07:28:16.632Z,96210.09
2022-12-08T07:33:37.759Z,96200.84
2022-12-08T07:38:58.469Z,96192.44
2022-12-08T07:44:19.200Z,96186.53
2022-12-08T07:49:39.849Z,96193.75
2022-12-08T07:55:00.743Z,96196.63
2022-12-08T08:00:21.649Z,96200.09
2022-12-08T08:05:42.265Z,96206.50
2022-12-08T08:11:15.807Z,96205.59
2022-12-08T10:32:24.783Z,96140.25
2022-12-08T10:37:56.209Z,96136.03
2022-12-08T10:43:32.326Z,96124.81
2022-12-08T11:27:36.993Z,96091.38
2022-12-08T11:33:06.020Z,96098.56
2022-12-08T11:43:12.082Z,96079.09
2022-12-08T11:48:41.112Z,96081.47
2022-12-08T11:54:12.436Z,96074.28
2022-12-08T11:59:38.394Z,96068.03
2022-12-08T12:05:05.179Z,96065.81
2022-12-08T12:10:49.189Z,96064.47
2022-12-08T12:16:15.914Z,96061.06
2022-12-08T12:21:43.861Z,96056.94
2022-12-08T12:27:25.004Z,96044.91
2022-12-08T12:32:59.015Z,96040.25
2022-12-08T12:38:53.978Z,96039.69
2022-12-08T12:44:14.704Z,96030.69
2022-12-08T12:50:05.981Z,96033.16
2022-12-08T12:55:29.590Z,96026.63
2022-12-08T13:00:50.508Z,96025.91
2022-12-08T13:06:14.907Z,96027.81
2022-12-08T13:11:50.221Z,96017.72
2022-12-08T13:17:15.874Z,96018.66
2022-12-08T13:22:53.477Z,96013.13
2022-12-08T13:28:24.417Z,96013.84
2022-12-08T13:33:45.302Z,96008.69
2022-12-08T13:39:07.463Z,96006.09
2022-12-08T13:52:32.769Z,96021.09
2022-12-08T14:02:30.135Z,96017.78
2022-12-08T14:07:55.205Z,96017.66
2022-12-08T14:13:17.049Z,96015.22
2022-12-08T14:18:37.990Z,96015.56
2022-12-08T14:24:03.207Z,96021.91
2022-12-08T14:29:46.945Z,96023.78
2022-12-08T14:35:08.188Z,96024.84
2022-12-08T14:40:36.370Z,96021.31
2022-12-08T14:46:05.155Z,96021.03
2022-12-08T14:51:31.095Z,96017.19
2022-12-08T14:56:54.934Z,96014.16
2022-12-08T15:02:15.899Z,96016.25
2022-12-08T15:07:48.797Z,96016.41
2022-12-08T15:13:09.794Z,96015.81
2022-12-08T15:18:37.272Z,96020.88
2022-12-08T15:23:58.181Z,96021.69
2022-12-08T15:29:30.383Z,96021.31
2022-12-08T15:34:51.363Z,96016.41
2022-12-08T15:40:20.136Z,96025.56
2022-12-08T15:45:50.552Z,96017.94
2022-12-08T15:51:18.829Z,96018.28
2022-12-08T15:57:17.838Z,96017.59
2022-12-08T16:02:49.438Z,96018.88
2022-12-08T16:08:44.736Z,96013.72
2022-12-08T16:14:09.455Z,96023.22
2022-12-08T16:19:38.719Z,96021.59
2022-12-08T16:25:14.693Z,96030.47
2022-12-08T16:30:39.043Z,96021.94
2022-12-08T16:35:59.929Z,96021.72
2022-12-08T16:41:39.197Z,96027.69
2022-12-08T16:47:09.151Z,96035.06
2022-12-08T16:52:29.950Z,96041.25
2022-12-08T16:57:51.077Z,96035.16
2022-12-08T17:03:14.732Z,96032.13
2022-12-08T17:08:35.526Z,96037.72
2022-12-08T17:13:56.152Z,96033.50
2022-12-08T17:19:16.727Z,96024.97
2022-12-08T17:24:38.235Z,96021.81
2022-12-08T17:29:59.601Z,96022.84
2022-12-08T17:35:20.668Z,96027.75
2022-12-08T17:40:41.589Z,96026.69
2022-12-08T17:46:02.544Z,96029.06
2022-12-08T17:51:23.362Z,96031.41
2022-12-08T17:56:45.058Z,96035.78
2022-12-08T18:02:06.128Z,96027.81
2022-12-08T18:07:27.055Z,96035.78
2022-12-08T18:12:47.909Z,96031.50
2022-12-08T18:18:08.597Z,96032.22
2022-12-08T18:23:29.555Z,96030.00
2022-12-08T18:28:50.307Z,96027.53
2022-12-08T18:34:11.604Z,96018.38
2022-12-08T18:39:35.899Z,96015.09
2022-12-08T18:45:06.826Z,96008.78
2022-12-08T18:50:27.544Z,96004.25
2022-12-08T18:55:50.936Z,96002.97
2022-12-08T19:01:15.179Z,96009.06
2022-12-08T19:06:40.176Z,96008.00
2022-12-08T19:12:00.965Z,96012.81
2022-12-08T19:17:22.149Z,96010.66
2022-12-08T19:22:43.078Z,96013.09
2022-12-08T19:28:05.035Z,96010.94
2022-12-08T19:33:26.881Z,96015.28
2022-12-08T19:39:08.205Z,96014.19
2022-12-08T19:44:47.713Z,96014.94
2022-12-08T19:50:28.505Z,96017.38
2022-12-08T19:55:49.478Z,96018.06
2022-12-08T20:01:10.277Z,96019.41
2022-12-08T20:06:31.095Z,96007.41
2022-12-08T20:11:54.617Z,96003.81
2022-12-08T20:17:15.691Z,96000.47
2022-12-08T20:22:36.259Z,95996.81
2022-12-08T20:27:57.132Z,96001.00
2022-12-08T20:33:19.340Z,96004.75
2022-12-08T20:38:40.318Z,96010.13
2022-12-08T20:44:01.166Z,96015.13
2022-12-08T20:49:22.136Z,96024.69
2022-12-08T20:54:44.259Z,96017.47
2022-12-08T21:00:07.005Z,96028.25
2022-12-08T21:05:28.386Z,96019.44
2022-12-08T21:10:58.212Z,96024.88
2022-12-08T21:16:18.946Z,96022.34
2022-12-08T21:21:40.205Z,96014.44
2022-12-08T21:27:01.827Z,96007.03
2022-12-08T21:32:28.586Z,96002.88
2022-12-08T21:37:51.337Z,96005.47
2022-12-08T21:43:13.676Z,96013.06
2022-12-08T21:48:34.599Z,95999.41
2022-12-08T21:53:55.381Z,96010.03
2022-12-08T21:59:16.795Z,96013.00
2022-12-08T22:04:39.182Z,96010.47
2022-12-08T22:10:00.331Z,96013.56
2022-12-08T22:15:21.770Z,96014.88
2022-12-08T22:20:44.404Z,96022.50
2022-12-08T22:26:06.284Z,96017.69
2022-12-08T22:31:28.405Z,96026.91
2022-12-08T22:36:49.354Z,96033.34
2022-12-08T22:42:10.118Z,96027.09
2022-12-08T22:47:31.041Z,96041.47
2022-12-08T22:52:51.663Z,96041.31
2022-12-08T22:58:12.300Z,96048.56
2022-12-08T23:03:33.505Z,96051.44
2022-12-08T23:08:55.481Z,96044.97
2022-12-08T23:14:16.668Z,96036.75
2022-12-08T23:19:38.709Z,96036.75
2022-12-08T23:24:59.505Z,96037.25
2022-12-08T23:30:20.184Z,96040.47
2022-12-08T23:35:40.803Z,96035.72
2022-12-08T23:41:06.541Z,96027.84
2022-12-08T23:46:27.698Z,96028.50
2022-12-08T23:51:49.257Z,96030.63
2022-12-08T23:57:10.247Z,96022.94
